sensor_id;sensor_type;location;lat;lon;timestamp;P1;durP1;ratioP1;P2;durP2;ratioP2
47167;SDS011;32931;47.778;17.806;2023-04-02T00:00:28;2.67;;;0.50;;
47167;SDS011;32931;47.778;17.806;2023-04-02T00:15:39;0.80;;;0.57;;
47167;SDS011;32931;47.778;17.806;2023-04-02T00:18:08;1.45;;;0.45;;
47167;SDS011;32931;47.778;17.806;2023-04-02T00:20:39;2.10;;;0.57;;
47167;SDS011;32931;47.778;17.806;2023-04-02T00:23:11;3.53;;;0.43;;
47167;SDS011;32931;47.778;17.806;2023-04-02T00:25:39;1.38;;;0.40;;
47167;SDS011;32931;47.778;17.806;2023-04-02T00:28:14;1.23;;;0.40;;
47167;SDS011;32931;47.778;17.806;2023-04-02T00:30:55;1.87;;;0.30;;
47167;SDS011;32931;47.778;17.806;2023-04-02T00:33:24;0.47;;;0.35;;
47167;SDS011;32931;47.778;17.806;2023-04-02T00:35:53;0.88;;;0.40;;
47167;SDS011;32931;47.778;17.806;2023-04-02T00:38:27;0.65;;;0.45;;
47167;SDS011;32931;47.778;17.806;2023-04-02T00:40:58;1.23;;;0.50;;
47167;SDS011;32931;47.778;17.806;2023-04-02T00:43:29;1.33;;;0.60;;
47167;SDS011;32931;47.778;17.806;2023-04-02T00:45:59;0.77;;;0.50;;
47167;SDS011;32931;47.778;17.806;2023-04-02T00:50:59;4.13;;;1.00;;
47167;SDS011;32931;47.778;17.806;2023-04-02T00:53:45;1.80;;;0.50;;
47167;SDS011;32931;47.778;17.806;2023-04-02T00:56:17;0.95;;;0.50;;
47167;SDS011;32931;47.778;17.806;2023-04-02T00:58:53;1.00;;;0.50;;
47167;SDS011;32931;47.778;17.806;2023-04-02T01:01:24;1.00;;;0.50;;
47167;SDS011;32931;47.778;17.806;2023-04-02T01:03:54;1.17;;;0.40;;
47167;SDS011;32931;47.778;17.806;2023-04-02T01:06:28;0.40;;;0.40;;
47167;SDS011;32931;47.778;17.806;2023-04-02T01:16:50;1.48;;;0.70;;
47167;SDS011;32931;47.778;17.806;2023-04-02T01:24:59;1.70;;;0.50;;
47167;SDS011;32931;47.778;17.806;2023-04-02T01:27:31;0.70;;;0.50;;
47167;SDS011;32931;47.778;17.806;2023-04-02T01:30:06;1.63;;;0.55;;
47167;SDS011;32931;47.778;17.806;2023-04-02T01:32:36;0.80;;;0.57;;
47167;SDS011;32931;47.778;17.806;2023-04-02T01:35:03;3.03;;;0.80;;
47167;SDS011;32931;47.778;17.806;2023-04-02T01:45:50;0.80;;;0.50;;
47167;SDS011;32931;47.778;17.806;2023-04-02T01:48:21;0.82;;;0.50;;
47167;SDS011;32931;47.778;17.806;2023-04-02T01:50:53;2.28;;;0.68;;
47167;SDS011;32931;47.778;17.806;2023-04-02T01:53:22;0.52;;;0.40;;
47167;SDS011;32931;47.778;17.806;2023-04-02T01:55:55;0.60;;;0.50;;
47167;SDS011;32931;47.778;17.806;2023-04-02T01:58:25;4.03;;;1.00;;
47167;SDS011;32931;47.778;17.806;2023-04-02T02:01:13;1.00;;;0.60;;
47167;SDS011;32931;47.778;17.806;2023-04-02T02:03:42;1.45;;;0.70;;
47167;SDS011;32931;47.778;17.806;2023-04-02T02:06:10;0.60;;;0.50;;
47167;SDS011;32931;47.778;17.806;2023-04-02T02:08:41;1.13;;;0.60;;
47167;SDS011;32931;47.778;17.806;2023-04-02T02:11:25;2.47;;;0.65;;
47167;SDS011;32931;47.778;17.806;2023-04-02T02:13:55;0.70;;;0.50;;
47167;SDS011;32931;47.778;17.806;2023-04-02T02:16:23;1.67;;;0.50;;
47167;SDS011;32931;47.778;17.806;2023-04-02T02:18:52;2.85;;;0.50;;
47167;SDS011;32931;47.778;17.806;2023-04-02T02:21:26;1.38;;;0.40;;
47167;SDS011;32931;47.778;17.806;2023-04-02T02:23:54;0.70;;;0.52;;
47167;SDS011;32931;47.778;17.806;2023-04-02T02:26:22;2.92;;;0.60;;
47167;SDS011;32931;47.778;17.806;2023-04-02T02:28:51;0.73;;;0.60;;
47167;SDS011;32931;47.778;17.806;2023-04-02T02:31:26;1.80;;;0.63;;
47167;SDS011;32931;47.778;17.806;2023-04-02T02:33:59;1.90;;;0.60;;
47167;SDS011;32931;47.778;17.806;2023-04-02T02:36:30;0.90;;;0.50;;
47167;SDS011;32931;47.778;17.806;2023-04-02T02:39:15;0.80;;;0.60;;
47167;SDS011;32931;47.778;17.806;2023-04-02T02:41:49;1.77;;;0.50;;
47167;SDS011;32931;47.778;17.806;2023-04-02T02:44:24;1.88;;;0.63;;
47167;SDS011;32931;47.778;17.806;2023-04-02T02:46:57;3.53;;;0.63;;
47167;SDS011;32931;47.778;17.806;2023-04-02T02:49:28;0.77;;;0.50;;
47167;SDS011;32931;47.778;17.806;2023-04-02T02:54:38;1.23;;;0.60;;
47167;SDS011;32931;47.778;17.806;2023-04-02T02:57:09;1.80;;;0.70;;
47167;SDS011;32931;47.778;17.806;2023-04-02T02:59:38;1.60;;;0.90;;
47167;SDS011;32931;47.778;17.806;2023-04-02T03:02:05;2.40;;;0.70;;
47167;SDS011;32931;47.778;17.806;2023-04-02T03:04:32;2.58;;;0.70;;
47167;SDS011;32931;47.778;17.806;2023-04-02T03:07:00;1.88;;;0.80;;
47167;SDS011;32931;47.778;17.806;2023-04-02T03:12:05;3.50;;;0.73;;
47167;SDS011;32931;47.778;17.806;2023-04-02T03:15:11;1.02;;;0.80;;
47167;SDS011;32931;47.778;17.806;2023-04-02T03:17:40;1.73;;;0.80;;
47167;SDS011;32931;47.778;17.806;2023-04-02T03:20:42;1.63;;;0.70;;
47167;SDS011;32931;47.778;17.806;2023-04-02T03:23:28;1.20;;;0.70;;
47167;SDS011;32931;47.778;17.806;2023-04-02T03:28:42;0.85;;;0.60;;
47167;SDS011;32931;47.778;17.806;2023-04-02T03:39:55;3.83;;;0.65;;
47167;SDS011;32931;47.778;17.806;2023-04-02T03:42:34;1.98;;;0.70;;
47167;SDS011;32931;47.778;17.806;2023-04-02T03:45:19;1.38;;;0.63;;
47167;SDS011;32931;47.778;17.806;2023-04-02T03:47:53;1.63;;;0.63;;
47167;SDS011;32931;47.778;17.806;2023-04-02T03:53:15;1.30;;;0.55;;
47167;SDS011;32931;47.778;17.806;2023-04-02T03:55:42;1.77;;;0.60;;
47167;SDS011;32931;47.778;17.806;2023-04-02T03:58:26;1.77;;;0.80;;
47167;SDS011;32931;47.778;17.806;2023-04-02T04:01:02;2.10;;;0.93;;
47167;SDS011;32931;47.778;17.806;2023-04-02T04:03:43;1.63;;;0.90;;
47167;SDS011;32931;47.778;17.806;2023-04-02T04:06:24;2.85;;;1.40;;
47167;SDS011;32931;47.778;17.806;2023-04-02T04:08:54;2.33;;;1.13;;
47167;SDS011;32931;47.778;17.806;2023-04-02T04:17:00;2.88;;;0.90;;
47167;SDS011;32931;47.778;17.806;2023-04-02T04:22:16;2.45;;;0.73;;
47167;SDS011;32931;47.778;17.806;2023-04-02T04:24:55;2.78;;;1.02;;
47167;SDS011;32931;47.778;17.806;2023-04-02T04:27:35;0.98;;;0.60;;
47167;SDS011;32931;47.778;17.806;2023-04-02T04:33:00;1.70;;;0.90;;
47167;SDS011;32931;47.778;17.806;2023-04-02T04:35:31;1.25;;;0.65;;
47167;SDS011;32931;47.778;17.806;2023-04-02T04:38:03;1.55;;;0.80;;
47167;SDS011;32931;47.778;17.806;2023-04-02T04:40:36;1.48;;;0.60;;
47167;SDS011;32931;47.778;17.806;2023-04-02T04:43:17;1.40;;;0.70;;
47167;SDS011;32931;47.778;17.806;2023-04-02T04:45:53;2.25;;;0.70;;
47167;SDS011;32931;47.778;17.806;2023-04-02T04:50:57;1.77;;;0.70;;
47167;SDS011;32931;47.778;17.806;2023-04-02T04:53:36;0.70;;;0.60;;
47167;SDS011;32931;47.778;17.806;2023-04-02T04:56:11;1.30;;;0.55;;
47167;SDS011;32931;47.778;17.806;2023-04-02T04:58:47;1.35;;;0.60;;
47167;SDS011;32931;47.778;17.806;2023-04-02T05:14:41;1.63;;;0.80;;
47167;SDS011;32931;47.778;17.806;2023-04-02T05:17:19;2.97;;;1.00;;
47167;SDS011;32931;47.778;17.806;2023-04-02T05:22:59;2.97;;;1.10;;
47167;SDS011;32931;47.778;17.806;2023-04-02T05:31:19;1.67;;;1.00;;
47167;SDS011;32931;47.778;17.806;2023-04-02T05:34:22;1.02;;;0.70;;
47167;SDS011;32931;47.778;17.806;2023-04-02T05:36:54;1.33;;;0.90;;
47167;SDS011;32931;47.778;17.806;2023-04-02T05:39:21;1.15;;;0.82;;
47167;SDS011;32931;47.778;17.806;2023-04-02T05:41:51;1.85;;;0.80;;
47167;SDS011;32931;47.778;17.806;2023-04-02T05:44:27;1.88;;;1.05;;
47167;SDS011;32931;47.778;17.806;2023-04-02T05:46:57;1.42;;;0.93;;
47167;SDS011;32931;47.778;17.806;2023-04-02T05:49:30;1.33;;;0.90;;
47167;SDS011;32931;47.778;17.806;2023-04-02T05:52:26;1.88;;;1.00;;
47167;SDS011;32931;47.778;17.806;2023-04-02T05:57:32;0.90;;;0.90;;
47167;SDS011;32931;47.778;17.806;2023-04-02T06:00:04;1.67;;;1.10;;
47167;SDS011;32931;47.778;17.806;2023-04-02T06:03:01;1.35;;;1.00;;
47167;SDS011;32931;47.778;17.806;2023-04-02T06:05:35;1.92;;;1.10;;
47167;SDS011;32931;47.778;17.806;2023-04-02T06:08:10;2.53;;;1.30;;
47167;SDS011;32931;47.778;17.806;2023-04-02T06:10:56;2.05;;;1.30;;
47167;SDS011;32931;47.778;17.806;2023-04-02T06:13:35;2.43;;;1.27;;
47167;SDS011;32931;47.778;17.806;2023-04-02T06:16:01;1.80;;;1.23;;
47167;SDS011;32931;47.778;17.806;2023-04-02T06:18:32;1.73;;;1.20;;
47167;SDS011;32931;47.778;17.806;2023-04-02T06:21:00;3.42;;;1.38;;
47167;SDS011;32931;47.778;17.806;2023-04-02T06:23:43;1.70;;;1.50;;
47167;SDS011;32931;47.778;17.806;2023-04-02T06:31:43;2.58;;;1.45;;
47167;SDS011;32931;47.778;17.806;2023-04-02T06:36:46;1.85;;;1.20;;
47167;SDS011;32931;47.778;17.806;2023-04-02T06:39:17;1.70;;;1.25;;
47167;SDS011;32931;47.778;17.806;2023-04-02T06:41:50;2.07;;;1.20;;
47167;SDS011;32931;47.778;17.806;2023-04-02T06:44:26;2.28;;;1.20;;
47167;SDS011;32931;47.778;17.806;2023-04-02T06:46:58;2.60;;;1.20;;
47167;SDS011;32931;47.778;17.806;2023-04-02T06:52:04;1.92;;;1.27;;
47167;SDS011;32931;47.778;17.806;2023-04-02T06:54:37;2.72;;;1.40;;
47167;SDS011;32931;47.778;17.806;2023-04-02T06:57:03;3.45;;;1.45;;
47167;SDS011;32931;47.778;17.806;2023-04-02T06:59:32;2.90;;;1.65;;
47167;SDS011;32931;47.778;17.806;2023-04-02T07:02:03;2.55;;;1.33;;
47167;SDS011;32931;47.778;17.806;2023-04-02T07:04:45;2.47;;;1.45;;
47167;SDS011;32931;47.778;17.806;2023-04-02T07:07:11;2.33;;;1.40;;
47167;SDS011;32931;47.778;17.806;2023-04-02T07:09:37;1.55;;;1.30;;
47167;SDS011;32931;47.778;17.806;2023-04-02T07:12:12;1.73;;;1.20;;
47167;SDS011;32931;47.778;17.806;2023-04-02T07:14:39;1.88;;;1.20;;
47167;SDS011;32931;47.778;17.806;2023-04-02T07:17:05;1.60;;;1.25;;
47167;SDS011;32931;47.778;17.806;2023-04-02T07:19:31;1.27;;;1.00;;
47167;SDS011;32931;47.778;17.806;2023-04-02T07:21:57;2.50;;;1.30;;
47167;SDS011;32931;47.778;17.806;2023-04-02T07:24:23;1.98;;;1.02;;
47167;SDS011;32931;47.778;17.806;2023-04-02T07:26:49;1.58;;;0.95;;
47167;SDS011;32931;47.778;17.806;2023-04-02T07:29:16;1.73;;;1.00;;
47167;SDS011;32931;47.778;17.806;2023-04-02T07:31:42;1.27;;;0.85;;
47167;SDS011;32931;47.778;17.806;2023-04-02T07:34:09;0.90;;;0.70;;
47167;SDS011;32931;47.778;17.806;2023-04-02T07:36:35;1.23;;;1.00;;
47167;SDS011;32931;47.778;17.806;2023-04-02T07:39:01;1.90;;;1.00;;
47167;SDS011;32931;47.778;17.806;2023-04-02T07:41:28;1.25;;;0.77;;
47167;SDS011;32931;47.778;17.806;2023-04-02T07:43:54;1.25;;;0.82;;
47167;SDS011;32931;47.778;17.806;2023-04-02T07:46:20;1.50;;;1.00;;
47167;SDS011;32931;47.778;17.806;2023-04-02T07:48:46;2.40;;;0.88;;
47167;SDS011;32931;47.778;17.806;2023-04-02T07:51:14;1.88;;;1.00;;
47167;SDS011;32931;47.778;17.806;2023-04-02T07:53:44;2.50;;;0.90;;
47167;SDS011;32931;47.778;17.806;2023-04-02T07:56:15;1.45;;;0.93;;
47167;SDS011;32931;47.778;17.806;2023-04-02T07:58:43;1.50;;;0.93;;
47167;SDS011;32931;47.778;17.806;2023-04-02T08:01:23;2.10;;;0.60;;
47167;SDS011;32931;47.778;17.806;2023-04-02T08:03:51;1.70;;;0.90;;
47167;SDS011;32931;47.778;17.806;2023-04-02T08:06:18;2.75;;;1.02;;
47167;SDS011;32931;47.778;17.806;2023-04-02T08:08:45;4.43;;;1.00;;
47167;SDS011;32931;47.778;17.806;2023-04-02T08:11:11;1.58;;;0.77;;
47167;SDS011;32931;47.778;17.806;2023-04-02T08:13:38;1.33;;;0.80;;
47167;SDS011;32931;47.778;17.806;2023-04-02T08:16:04;1.25;;;0.80;;
47167;SDS011;32931;47.778;17.806;2023-04-02T08:18:31;2.05;;;0.77;;
47167;SDS011;32931;47.778;17.806;2023-04-02T08:20:58;1.48;;;0.70;;
47167;SDS011;32931;47.778;17.806;2023-04-02T08:23:25;1.08;;;0.70;;
47167;SDS011;32931;47.778;17.806;2023-04-02T08:25:52;1.00;;;0.90;;
47167;SDS011;32931;47.778;17.806;2023-04-02T08:28:19;1.70;;;0.80;;
47167;SDS011;32931;47.778;17.806;2023-04-02T08:30:46;2.17;;;0.88;;
47167;SDS011;32931;47.778;17.806;2023-04-02T08:33:17;2.40;;;0.90;;
47167;SDS011;32931;47.778;17.806;2023-04-02T08:35:44;1.52;;;1.10;;
47167;SDS011;32931;47.778;17.806;2023-04-02T08:38:12;1.42;;;1.00;;
47167;SDS011;32931;47.778;17.806;2023-04-02T08:40:41;1.30;;;0.50;;
47167;SDS011;32931;47.778;17.806;2023-04-02T08:43:15;1.20;;;0.55;;
47167;SDS011;32931;47.778;17.806;2023-04-02T08:46:27;2.00;;;0.63;;
47167;SDS011;32931;47.778;17.806;2023-04-02T08:49:02;1.10;;;0.68;;
47167;SDS011;32931;47.778;17.806;2023-04-02T08:51:36;3.08;;;0.90;;
47167;SDS011;32931;47.778;17.806;2023-04-02T08:56:38;1.55;;;0.90;;
47167;SDS011;32931;47.778;17.806;2023-04-02T08:59:08;1.13;;;0.95;;
47167;SDS011;32931;47.778;17.806;2023-04-02T09:04:28;1.98;;;0.90;;
47167;SDS011;32931;47.778;17.806;2023-04-02T09:06:55;2.90;;;0.90;;
47167;SDS011;32931;47.778;17.806;2023-04-02T09:09:24;2.00;;;0.80;;
47167;SDS011;32931;47.778;17.806;2023-04-02T09:11:52;1.75;;;0.90;;
47167;SDS011;32931;47.778;17.806;2023-04-02T09:17:03;4.63;;;0.90;;
47167;SDS011;32931;47.778;17.806;2023-04-02T09:19:40;1.20;;;0.90;;
47167;SDS011;32931;47.778;17.806;2023-04-02T09:22:19;1.27;;;0.90;;
47167;SDS011;32931;47.778;17.806;2023-04-02T09:24:54;1.10;;;0.77;;
47167;SDS011;32931;47.778;17.806;2023-04-02T09:27:26;1.35;;;0.90;;
47167;SDS011;32931;47.778;17.806;2023-04-02T09:32:51;1.33;;;0.90;;
47167;SDS011;32931;47.778;17.806;2023-04-02T09:35:22;1.70;;;1.10;;
47167;SDS011;32931;47.778;17.806;2023-04-02T09:43:20;1.20;;;1.10;;
47167;SDS011;32931;47.778;17.806;2023-04-02T09:48:54;1.48;;;1.00;;
47167;SDS011;32931;47.778;17.806;2023-04-02T09:51:26;1.55;;;1.13;;
47167;SDS011;32931;47.778;17.806;2023-04-02T09:56:28;2.97;;;1.17;;
47167;SDS011;32931;47.778;17.806;2023-04-02T10:01:34;2.45;;;1.10;;
47167;SDS011;32931;47.778;17.806;2023-04-02T10:04:04;2.15;;;1.05;;
47167;SDS011;32931;47.778;17.806;2023-04-02T10:06:32;1.30;;;1.20;;
47167;SDS011;32931;47.778;17.806;2023-04-02T10:09:18;1.73;;;1.20;;
47167;SDS011;32931;47.778;17.806;2023-04-02T10:11:51;3.17;;;1.10;;
47167;SDS011;32931;47.778;17.806;2023-04-02T10:14:24;1.38;;;1.20;;
47167;SDS011;32931;47.778;17.806;2023-04-02T10:17:08;1.35;;;1.25;;
47167;SDS011;32931;47.778;17.806;2023-04-02T10:19:38;1.70;;;0.88;;
47167;SDS011;32931;47.778;17.806;2023-04-02T10:22:15;1.10;;;1.00;;
47167;SDS011;32931;47.778;17.806;2023-04-02T10:24:43;2.45;;;1.10;;
47167;SDS011;32931;47.778;17.806;2023-04-02T10:27:16;1.83;;;1.30;;
47167;SDS011;32931;47.778;17.806;2023-04-02T10:30:30;1.20;;;1.10;;
47167;SDS011;32931;47.778;17.806;2023-04-02T10:32:48;2.17;;;1.38;;
47167;SDS011;32931;47.778;17.806;2023-04-02T10:38:56;1.30;;;1.20;;
47167;SDS011;32931;47.778;17.806;2023-04-02T10:41:03;3.05;;;1.75;;
47167;SDS011;32931;47.778;17.806;2023-04-02T10:57:18;1.42;;;1.10;;
47167;SDS011;32931;47.778;17.806;2023-04-02T11:02:57;1.40;;;1.20;;
47167;SDS011;32931;47.778;17.806;2023-04-02T11:05:33;2.33;;;1.23;;
47167;SDS011;32931;47.778;17.806;2023-04-02T11:08:18;1.48;;;1.20;;
47167;SDS011;32931;47.778;17.806;2023-04-02T11:10:52;1.42;;;1.33;;
47167;SDS011;32931;47.778;17.806;2023-04-02T11:16:30;1.85;;;1.08;;
47167;SDS011;32931;47.778;17.806;2023-04-02T11:21:42;2.17;;;1.30;;
47167;SDS011;32931;47.778;17.806;2023-04-02T11:27:30;2.08;;;1.30;;
47167;SDS011;32931;47.778;17.806;2023-04-02T11:32:43;4.40;;;1.30;;
47167;SDS011;32931;47.778;17.806;2023-04-02T11:38:46;1.63;;;1.23;;
47167;SDS011;32931;47.778;17.806;2023-04-02T11:41:04;1.50;;;1.40;;
47167;SDS011;32931;47.778;17.806;2023-04-02T11:48:44;1.73;;;1.33;;
47167;SDS011;32931;47.778;17.806;2023-04-02T11:53:47;1.50;;;1.40;;
47167;SDS011;32931;47.778;17.806;2023-04-02T11:56:18;1.80;;;1.70;;
47167;SDS011;32931;47.778;17.806;2023-04-02T12:05:15;4.32;;;2.08;;
47167;SDS011;32931;47.778;17.806;2023-04-02T12:13:18;2.08;;;1.48;;
47167;SDS011;32931;47.778;17.806;2023-04-02T12:16:11;3.75;;;1.63;;
47167;SDS011;32931;47.778;17.806;2023-04-02T12:18:45;2.15;;;1.70;;
47167;SDS011;32931;47.778;17.806;2023-04-02T12:21:19;2.35;;;1.60;;
47167;SDS011;32931;47.778;17.806;2023-04-02T12:23:48;2.05;;;1.85;;
47167;SDS011;32931;47.778;17.806;2023-04-02T12:26:51;5.32;;;2.25;;
47167;SDS011;32931;47.778;17.806;2023-04-02T12:31:50;1.50;;;1.35;;
47167;SDS011;32931;47.778;17.806;2023-04-02T12:34:22;1.65;;;1.30;;
47167;SDS011;32931;47.778;17.806;2023-04-02T12:37:00;1.40;;;1.30;;
47167;SDS011;32931;47.778;17.806;2023-04-02T12:39:29;1.40;;;1.30;;
47167;SDS011;32931;47.778;17.806;2023-04-02T12:41:56;1.30;;;1.10;;
47167;SDS011;32931;47.778;17.806;2023-04-02T12:44:25;1.05;;;0.95;;
47167;SDS011;32931;47.778;17.806;2023-04-02T12:46:53;3.45;;;1.15;;
47167;SDS011;32931;47.778;17.806;2023-04-02T12:52:10;1.38;;;0.47;;
47167;SDS011;32931;47.778;17.806;2023-04-02T12:55:00;2.45;;;0.40;;
47167;SDS011;32931;47.778;17.806;2023-04-02T13:00:00;1.05;;;0.80;;
47167;SDS011;32931;47.778;17.806;2023-04-02T13:03:32;1.38;;;0.70;;
47167;SDS011;32931;47.778;17.806;2023-04-02T13:05:53;0.60;;;0.60;;
47167;SDS011;32931;47.778;17.806;2023-04-02T13:08:22;3.13;;;1.35;;
47167;SDS011;32931;47.778;17.806;2023-04-02T13:11:02;3.60;;;2.33;;
47167;SDS011;32931;47.778;17.806;2023-04-02T13:13:39;4.55;;;2.80;;
47167;SDS011;32931;47.778;17.806;2023-04-02T13:18:40;2.92;;;1.80;;
47167;SDS011;32931;47.778;17.806;2023-04-02T13:23:39;5.77;;;2.93;;
47167;SDS011;32931;47.778;17.806;2023-04-02T13:28:56;3.03;;;2.55;;
47167;SDS011;32931;47.778;17.806;2023-04-02T13:31:46;3.90;;;2.75;;
47167;SDS011;32931;47.778;17.806;2023-04-02T13:34:12;3.58;;;2.95;;
47167;SDS011;32931;47.778;17.806;2023-04-02T13:36:39;4.13;;;2.95;;
47167;SDS011;32931;47.778;17.806;2023-04-02T13:39:05;6.68;;;3.15;;
47167;SDS011;32931;47.778;17.806;2023-04-02T13:42:17;9.30;;;2.80;;
47167;SDS011;32931;47.778;17.806;2023-04-02T13:44:22;3.63;;;3.20;;
47167;SDS011;32931;47.778;17.806;2023-04-02T13:46:50;3.97;;;2.42;;
47167;SDS011;32931;47.778;17.806;2023-04-02T13:49:17;3.83;;;3.03;;
47167;SDS011;32931;47.778;17.806;2023-04-02T13:52:02;3.38;;;2.30;;
47167;SDS011;32931;47.778;17.806;2023-04-02T13:54:31;3.30;;;2.75;;
47167;SDS011;32931;47.778;17.806;2023-04-02T13:56:59;2.50;;;2.30;;
47167;SDS011;32931;47.778;17.806;2023-04-02T13:59:25;3.05;;;2.42;;
47167;SDS011;32931;47.778;17.806;2023-04-02T14:01:52;2.35;;;1.90;;
47167;SDS011;32931;47.778;17.806;2023-04-02T14:04:24;2.78;;;1.73;;
47167;SDS011;32931;47.778;17.806;2023-04-02T14:13:15;2.95;;;2.15;;
47167;SDS011;32931;47.778;17.806;2023-04-02T14:15:37;3.03;;;2.40;;
47167;SDS011;32931;47.778;17.806;2023-04-02T14:43:35;4.80;;;4.05;;
47167;SDS011;32931;47.778;17.806;2023-04-02T14:53:55;5.28;;;4.35;;
47167;SDS011;32931;47.778;17.806;2023-04-02T14:56:25;5.25;;;3.72;;
47167;SDS011;32931;47.778;17.806;2023-04-02T15:02:07;2.67;;;2.25;;
47167;SDS011;32931;47.778;17.806;2023-04-02T15:04:42;1.95;;;1.65;;
47167;SDS011;32931;47.778;17.806;2023-04-02T15:07:32;5.18;;;1.50;;
47167;SDS011;32931;47.778;17.806;2023-04-02T15:10:14;2.03;;;1.38;;
47167;SDS011;32931;47.778;17.806;2023-04-02T15:12:46;2.45;;;1.63;;
47167;SDS011;32931;47.778;17.806;2023-04-02T15:18:00;2.33;;;1.52;;
47167;SDS011;32931;47.778;17.806;2023-04-02T15:20:31;2.28;;;1.95;;
47167;SDS011;32931;47.778;17.806;2023-04-02T15:26:23;3.25;;;2.00;;
47167;SDS011;32931;47.778;17.806;2023-04-02T15:31:50;3.38;;;1.95;;
47167;SDS011;32931;47.778;17.806;2023-04-02T15:34:23;2.75;;;2.10;;
47167;SDS011;32931;47.778;17.806;2023-04-02T15:37:26;3.35;;;2.00;;
47167;SDS011;32931;47.778;17.806;2023-04-02T15:42:41;4.68;;;2.33;;
47167;SDS011;32931;47.778;17.806;2023-04-02T15:45:25;3.70;;;2.50;;
47167;SDS011;32931;47.778;17.806;2023-04-02T15:48:07;3.72;;;2.95;;
47167;SDS011;32931;47.778;17.806;2023-04-02T15:53:29;4.05;;;3.17;;
47167;SDS011;32931;47.778;17.806;2023-04-02T15:56:25;7.32;;;3.25;;
47167;SDS011;32931;47.778;17.806;2023-04-02T16:02:39;3.95;;;2.80;;
47167;SDS011;32931;47.778;17.806;2023-04-02T16:07:51;4.05;;;3.40;;
47167;SDS011;32931;47.778;17.806;2023-04-02T16:10:38;7.05;;;2.92;;
47167;SDS011;32931;47.778;17.806;2023-04-02T16:15:49;5.05;;;3.47;;
47167;SDS011;32931;47.778;17.806;2023-04-02T16:18:27;7.03;;;3.05;;
47167;SDS011;32931;47.778;17.806;2023-04-02T16:21:03;4.70;;;3.15;;
47167;SDS011;32931;47.778;17.806;2023-04-02T16:23:34;4.78;;;3.50;;
47167;SDS011;32931;47.778;17.806;2023-04-02T16:34:13;4.88;;;3.60;;
47167;SDS011;32931;47.778;17.806;2023-04-02T16:57:56;7.20;;;3.78;;
47167;SDS011;32931;47.778;17.806;2023-04-02T17:00:35;6.82;;;4.80;;
47167;SDS011;32931;47.778;17.806;2023-04-02T17:06:07;6.32;;;4.38;;
47167;SDS011;32931;47.778;17.806;2023-04-02T17:08:42;7.90;;;4.50;;
47167;SDS011;32931;47.778;17.806;2023-04-02T17:11:22;5.72;;;4.25;;
47167;SDS011;32931;47.778;17.806;2023-04-02T17:13:55;7.40;;;4.82;;
47167;SDS011;32931;47.778;17.806;2023-04-02T17:16:39;6.65;;;4.93;;
47167;SDS011;32931;47.778;17.806;2023-04-02T17:19:11;7.78;;;4.65;;
47167;SDS011;32931;47.778;17.806;2023-04-02T17:21:41;7.13;;;4.78;;
47167;SDS011;32931;47.778;17.806;2023-04-02T17:26:42;8.23;;;5.55;;
47167;SDS011;32931;47.778;17.806;2023-04-02T17:29:14;11.32;;;4.93;;
47167;SDS011;32931;47.778;17.806;2023-04-02T17:31:46;8.43;;;5.53;;
47167;SDS011;32931;47.778;17.806;2023-04-02T17:34:15;7.30;;;5.70;;
47167;SDS011;32931;47.778;17.806;2023-04-02T17:40:05;7.13;;;5.32;;
47167;SDS011;32931;47.778;17.806;2023-04-02T17:45:22;13.48;;;6.32;;
47167;SDS011;32931;47.778;17.806;2023-04-02T17:48:18;8.68;;;6.45;;
47167;SDS011;32931;47.778;17.806;2023-04-02T17:53:50;8.70;;;6.40;;
47167;SDS011;32931;47.778;17.806;2023-04-02T17:56:40;9.77;;;6.20;;
47167;SDS011;32931;47.778;17.806;2023-04-02T17:59:30;13.05;;;7.00;;
47167;SDS011;32931;47.778;17.806;2023-04-02T18:02:07;10.23;;;6.45;;
47167;SDS011;32931;47.778;17.806;2023-04-02T18:21:59;12.60;;;7.00;;
47167;SDS011;32931;47.778;17.806;2023-04-02T18:24:32;10.10;;;6.57;;
47167;SDS011;32931;47.778;17.806;2023-04-02T18:32:46;8.60;;;6.97;;
47167;SDS011;32931;47.778;17.806;2023-04-02T18:38:43;8.65;;;6.47;;
47167;SDS011;32931;47.778;17.806;2023-04-02T18:52:12;8.60;;;7.03;;
47167;SDS011;32931;47.778;17.806;2023-04-02T18:54:42;10.93;;;7.18;;
47167;SDS011;32931;47.778;17.806;2023-04-02T18:57:22;10.20;;;7.45;;
47167;SDS011;32931;47.778;17.806;2023-04-02T19:08:18;12.40;;;8.32;;
47167;SDS011;32931;47.778;17.806;2023-04-02T19:10:47;12.25;;;8.43;;
47167;SDS011;32931;47.778;17.806;2023-04-02T19:13:18;11.93;;;8.43;;
47167;SDS011;32931;47.778;17.806;2023-04-02T19:18:27;10.38;;;7.72;;
47167;SDS011;32931;47.778;17.806;2023-04-02T19:20:59;12.15;;;7.95;;
47167;SDS011;32931;47.778;17.806;2023-04-02T19:32:26;11.50;;;8.05;;
47167;SDS011;32931;47.778;17.806;2023-04-02T19:35:30;11.85;;;8.52;;
47167;SDS011;32931;47.778;17.806;2023-04-02T19:43:49;10.65;;;8.02;;
47167;SDS011;32931;47.778;17.806;2023-04-02T19:46:15;11.68;;;8.18;;
47167;SDS011;32931;47.778;17.806;2023-04-02T19:51:27;12.30;;;7.55;;
47167;SDS011;32931;47.778;17.806;2023-04-02T19:53:54;13.18;;;8.10;;
47167;SDS011;32931;47.778;17.806;2023-04-02T19:56:20;11.05;;;8.30;;
47167;SDS011;32931;47.778;17.806;2023-04-02T19:58:47;12.43;;;8.20;;
47167;SDS011;32931;47.778;17.806;2023-04-02T20:01:13;10.40;;;7.28;;
47167;SDS011;32931;47.778;17.806;2023-04-02T20:03:39;9.60;;;7.40;;
47167;SDS011;32931;47.778;17.806;2023-04-02T20:06:05;14.48;;;8.38;;
47167;SDS011;32931;47.778;17.806;2023-04-02T20:08:32;10.95;;;7.53;;
47167;SDS011;32931;47.778;17.806;2023-04-02T20:10:58;10.63;;;7.38;;
47167;SDS011;32931;47.778;17.806;2023-04-02T20:13:24;10.40;;;7.45;;
47167;SDS011;32931;47.778;17.806;2023-04-02T20:15:50;10.05;;;7.55;;
47167;SDS011;32931;47.778;17.806;2023-04-02T20:18:17;9.48;;;7.07;;
47167;SDS011;32931;47.778;17.806;2023-04-02T20:20:47;8.73;;;6.72;;
47167;SDS011;32931;47.778;17.806;2023-04-02T20:23:14;10.93;;;6.88;;
47167;SDS011;32931;47.778;17.806;2023-04-02T20:25:44;10.35;;;7.18;;
47167;SDS011;32931;47.778;17.806;2023-04-02T20:28:18;9.30;;;7.07;;
47167;SDS011;32931;47.778;17.806;2023-04-02T20:30:45;9.77;;;6.97;;
47167;SDS011;32931;47.778;17.806;2023-04-02T20:33:17;9.85;;;7.22;;
47167;SDS011;32931;47.778;17.806;2023-04-02T20:35:46;9.05;;;6.72;;
47167;SDS011;32931;47.778;17.806;2023-04-02T20:38:16;9.00;;;7.00;;
47167;SDS011;32931;47.778;17.806;2023-04-02T20:40:43;11.05;;;7.22;;
47167;SDS011;32931;47.778;17.806;2023-04-02T20:43:10;10.18;;;7.13;;
47167;SDS011;32931;47.778;17.806;2023-04-02T20:45:37;10.18;;;6.53;;
47167;SDS011;32931;47.778;17.806;2023-04-02T20:48:03;10.93;;;6.97;;
47167;SDS011;32931;47.778;17.806;2023-04-02T20:50:30;9.38;;;6.97;;
47167;SDS011;32931;47.778;17.806;2023-04-02T20:52:56;8.77;;;6.70;;
47167;SDS011;32931;47.778;17.806;2023-04-02T20:55:24;8.88;;;6.38;;
47167;SDS011;32931;47.778;17.806;2023-04-02T20:57:50;10.57;;;6.95;;
47167;SDS011;32931;47.778;17.806;2023-04-02T21:00:16;8.02;;;5.80;;
47167;SDS011;32931;47.778;17.806;2023-04-02T21:02:43;9.90;;;6.30;;
47167;SDS011;32931;47.778;17.806;2023-04-02T21:05:09;9.48;;;6.20;;
47167;SDS011;32931;47.778;17.806;2023-04-02T21:07:35;10.93;;;6.07;;
47167;SDS011;32931;47.778;17.806;2023-04-02T21:10:01;7.63;;;6.05;;
47167;SDS011;32931;47.778;17.806;2023-04-02T21:12:27;8.65;;;6.15;;
47167;SDS011;32931;47.778;17.806;2023-04-02T21:14:55;8.25;;;5.90;;
47167;SDS011;32931;47.778;17.806;2023-04-02T21:17:23;11.07;;;5.57;;
47167;SDS011;32931;47.778;17.806;2023-04-02T21:19:49;7.75;;;5.85;;
47167;SDS011;32931;47.778;17.806;2023-04-02T21:22:15;8.07;;;5.53;;